Time,TemperatureF,DewpointF,PressureIn,WindDirection,WindDirectionDegrees,WindSpeedMPH,WindSpeedGustMPH,Humidity,HourlyPrecipIn,Conditions,Clouds,dailyrainin,SoftwareType,DateUTC
2013-06-20 00:02:00,60.4,18.0,29.64,East,87,0.0,0.0,19,0.00,,---,0.00,VWS V14.00,2013-06-20 07:02:00,
2013-06-20 00:07:00,58.9,17.9,29.64,East,87,0.0,0.0,20,0.00,,---,0.00,VWS V14.00,2013-06-20 07:07:00,
2013-06-20 00:12:00,57.9,17.1,29.64,East,87,0.0,0.0,20,0.00,,---,0.00,VWS V14.00,2013-06-20 07:12:00,
2013-06-20 00:17:00,57.0,17.5,29.64,East,87,0.0,0.0,21,0.00,,---,0.00,VWS V14.00,2013-06-20 07:17:00,
2013-06-20 00:22:00,56.3,18.0,29.65,East,87,0.0,0.0,22,0.00,,---,0.00,VWS V14.00,2013-06-20 07:22:00,
2013-06-20 00:27:00,55.7,17.5,29.65,East,87,0.0,0.0,22,0.00,,---,0.00,VWS V14.00,2013-06-20 07:27:00,
2013-06-20 00:32:00,55.5,18.3,29.64,East,87,0.0,0.0,23,0.00,,---,0.00,VWS V14.00,2013-06-20 07:32:00,
2013-06-20 00:37:00,56.1,18.8,29.64,East,87,0.0,0.0,23,0.00,,---,0.00,VWS V14.00,2013-06-20 07:37:00,
2013-06-20 00:42:00,56.5,18.1,29.64,East,87,0.0,0.0,22,0.00,,---,0.00,VWS V14.00,2013-06-20 07:42:00,
2013-06-20 00:47:00,56.3,19.0,29.64,East,87,0.0,0.0,23,0.00,,---,0.00,VWS V14.00,2013-06-20 07:47:00,
2013-06-20 00:52:00,56.4,19.1,29.64,East,87,0.0,0.0,23,0.00,,---,0.00,VWS V14.00,2013-06-20 07:52:00,
2013-06-20 00:57:00,56.4,20.1,29.64,East,87,0.0,0.0,24,0.00,,---,0.00,VWS V14.00,2013-06-20 07:57:00,
2013-06-20 01:02:00,57.1,20.7,29.64,East,87,0.0,0.0,24,0.00,,---,0.00,VWS V14.00,2013-06-20 08:02:00,
2013-06-20 01:07:00,57.4,19.9,29.64,East,87,0.0,0.0,23,0.00,,---,0.00,VWS V14.00,2013-06-20 08:07:00,
2013-06-20 01:12:00,57.4,20.9,29.64,East,87,0.0,0.0,24,0.00,,---,0.00,VWS V14.00,2013-06-20 08:12:00,
2013-06-20 01:18:00,56.9,20.5,29.64,East,87,0.0,0.0,24,0.00,,---,0.00,VWS V14.00,2013-06-20 08:18:00,
2013-06-20 01:23:00,56.9,20.5,29.64,East,87,0.0,0.0,24,0.00,,---,0.00,VWS V14.00,2013-06-20 08:23:00,
2013-06-20 01:28:00,56.6,20.2,29.64,East,87,0.0,0.0,24,0.00,,---,0.00,VWS V14.00,2013-06-20 08:28:00,
2013-06-20 01:33:00,55.4,19.2,29.64,East,87,0.0,0.0,24,0.00,,---,0.00,VWS V14.00,2013-06-20 08:33:00,
2013-06-20 01:38:00,54.3,19.2,29.64,East,87,0.0,0.0,25,0.00,,---,0.00,VWS V14.00,2013-06-20 08:38:00,
2013-06-20 01:43:00,53.5,20.4,29.64,East,87,0.0,0.0,27,0.00,,---,0.00,VWS V14.00,2013-06-20 08:43:00,
2013-06-20 01:48:00,53.3,20.2,29.64,East,87,0.0,0.0,27,0.00,,---,0.00,VWS V14.00,2013-06-20 08:48:00,
2013-06-20 01:53:00,53.0,19.9,29.64,East,87,0.0,0.0,27,0.00,,---,0.00,VWS V14.00,2013-06-20 08:53:00,
2013-06-20 01:58:00,52.9,20.7,29.64,East,87,0.0,0.0,28,0.00,,---,0.00,VWS V14.00,2013-06-20 08:58:00,
2013-06-20 02:03:00,53.2,21.0,29.64,East,87,0.0,0.0,28,0.00,,---,0.00,VWS V14.00,2013-06-20 09:03:00,
2013-06-20 02:08:00,53.7,21.4,29.64,East,87,0.0,0.0,28,0.00,,---,0.00,VWS V14.00,2013-06-20 09:08:00,
2013-06-20 02:13:00,55.7,22.3,29.64,East,87,0.0,0.0,27,0.00,,---,0.00,VWS V14.00,2013-06-20 09:13:00,
2013-06-20 02:18:00,57.9,23.2,29.64,East,87,0.0,0.0,26,0.00,,---,0.00,VWS V14.00,2013-06-20 09:18:00,
2013-06-20 02:23:00,59.6,23.8,29.64,East,87,0.0,0.0,25,0.00,,---,0.00,VWS V14.00,2013-06-20 09:23:00,
2013-06-20 02:28:00,60.7,23.7,29.65,East,87,0.0,0.0,24,0.00,,---,0.00,VWS V14.00,2013-06-20 09:28:00,
2013-06-20 02:33:00,61.3,24.2,29.65,East,87,0.0,0.0,24,0.00,,---,0.00,VWS V14.00,2013-06-20 09:33:00,
2013-06-20 02:38:00,61.6,23.5,29.64,East,87,0.0,0.0,23,0.00,,---,0.00,VWS V14.00,2013-06-20 09:38:00,
2013-06-20 02:43:00,61.6,24.5,29.64,East,87,0.0,0.0,24,0.00,,---,0.00,VWS V14.00,2013-06-20 09:43:00,
2013-06-20 02:48:00,61.6,24.5,29.65,East,87,0.0,0.0,24,0.00,,---,0.00,VWS V14.00,2013-06-20 09:48:00,
2013-06-20 02:53:00,61.5,24.4,29.65,East,87,0.0,0.0,24,0.00,,---,0.00,VWS V14.00,2013-06-20 09:53:00,
2013-06-20 02:58:00,61.4,24.3,29.65,East,87,0.0,0.0,24,0.00,,---,0.00,VWS V14.00,2013-06-20 09:58:00,
2013-06-20 03:03:00,61.3,24.2,29.65,East,87,0.0,0.0,24,0.00,,---,0.00,VWS V14.00,2013-06-20 10:03:00,
2013-06-20 03:08:00,61.1,25.0,29.65,East,87,0.0,0.0,25,0.00,,---,0.00,VWS V14.00,2013-06-20 10:08:00,
2013-06-20 03:13:00,61.2,25.1,29.65,East,87,0.0,0.0,25,0.00,,---,0.00,VWS V14.00,2013-06-20 10:13:00,
2013-06-20 03:18:00,61.6,25.5,29.65,East,87,0.0,0.0,25,0.00,,---,0.00,VWS V14.00,2013-06-20 10:18:00,
2013-06-20 03:23:00,61.9,25.7,29.65,East,87,0.0,0.0,25,0.00,,---,0.00,VWS V14.00,2013-06-20 10:23:00,
2013-06-20 03:28:00,62.1,25.9,29.65,East,87,0.0,0.0,25,0.00,,---,0.00,VWS V14.00,2013-06-20 10:28:00,
2013-06-20 03:33:00,62.2,26.0,29.65,East,87,0.0,0.0,25,0.00,,---,0.00,VWS V14.00,2013-06-20 10:33:00,
2013-06-20 03:38:00,62.2,26.0,29.65,East,87,0.0,0.0,25,0.00,,---,0.00,VWS V14.00,2013-06-20 10:38:00,
2013-06-20 03:43:00,62.0,25.8,29.65,East,87,0.0,0.0,25,0.00,,---,0.00,VWS V14.00,2013-06-20 10:43:00,
2013-06-20 03:48:00,62.0,25.8,29.65,East,87,0.0,0.0,25,0.00,,---,0.00,VWS V14.00,2013-06-20 10:48:00,
2013-06-20 03:53:00,62.0,25.8,29.65,East,87,0.0,0.0,25,0.00,,---,0.00,VWS V14.00,2013-06-20 10:53:00,
2013-06-20 04:09:00,61.5,26.3,29.65,East,87,0.0,0.0,26,0.00,,---,0.00,VWS V14.00,2013-06-20 11:09:00,
2013-06-20 04:14:00,61.9,26.7,29.65,East,87,0.0,0.0,26,0.00,,---,0.00,VWS V14.00,2013-06-20 11:14:00,
2013-06-20 04:19:00,62.4,27.1,29.65,East,87,0.0,0.0,26,0.00,,---,0.00,VWS V14.00,2013-06-20 11:19:00,
2013-06-20 04:24:00,63.1,27.7,29.65,East,87,0.0,2.0,26,0.00,,---,0.00,VWS V14.00,2013-06-20 11:24:00,
2013-06-20 04:29:00,63.7,27.2,29.65,East,87,0.0,2.0,25,0.00,,---,0.00,VWS V14.00,2013-06-20 11:29:00,
2013-06-20 04:34:00,63.8,27.3,29.65,East,87,0.0,0.0,25,0.00,,---,0.00,VWS V14.00,2013-06-20 11:34:00,
2013-06-20 04:39:00,63.8,27.3,29.65,East,87,0.0,0.0,25,0.00,,---,0.00,VWS V14.00,2013-06-20 11:39:00,
2013-06-20 04:44:00,64.0,27.5,29.65,East,87,0.0,0.0,25,0.00,,---,0.00,VWS V14.00,2013-06-20 11:44:00,
2013-06-20 04:49:00,64.3,27.8,29.65,East,87,0.0,0.0,25,0.00,,---,0.00,VWS V14.00,2013-06-20 11:49:00,
2013-06-20 04:54:00,64.3,27.8,29.65,East,87,0.0,0.0,25,0.00,,---,0.00,VWS V14.00,2013-06-20 11:54:00,
2013-06-20 04:59:00,64.3,26.8,29.65,East,87,0.0,0.0,24,0.00,,---,0.00,VWS V14.00,2013-06-20 11:59:00,
2013-06-20 05:04:00,64.2,26.7,29.65,East,87,0.0,0.0,24,0.00,,---,0.00,VWS V14.00,2013-06-20 12:04:00,
2013-06-20 05:09:00,63.9,26.4,29.65,East,87,0.0,0.0,24,0.00,,---,0.00,VWS V14.00,2013-06-20 12:09:00,
2013-06-20 05:14:00,63.9,26.4,29.65,East,87,0.0,0.0,24,0.00,,---,0.00,VWS V14.00,2013-06-20 12:14:00,
2013-06-20 05:19:00,63.8,26.3,29.65,East,87,0.0,0.0,24,0.00,,---,0.00,VWS V14.00,2013-06-20 12:19:00,
2013-06-20 05:24:00,63.7,26.3,29.65,East,87,0.0,0.0,24,0.00,,---,0.00,VWS V14.00,2013-06-20 12:24:00,
2013-06-20 05:29:00,63.5,26.1,29.65,East,87,0.0,0.0,24,0.00,,---,0.00,VWS V14.00,2013-06-20 12:29:00,
2013-06-20 05:34:00,63.1,25.8,29.66,East,87,0.0,0.0,24,0.00,,---,0.00,VWS V14.00,2013-06-20 12:34:00,
2013-06-20 05:40:00,62.4,25.2,29.66,East,87,0.0,0.0,24,0.00,,---,0.00,VWS V14.00,2013-06-20 12:40:00,
2013-06-20 05:45:00,61.8,25.6,29.66,East,87,0.0,0.0,25,0.00,,---,0.00,VWS V14.00,2013-06-20 12:45:00,
2013-06-20 05:50:00,61.4,25.3,29.66,East,87,0.0,0.0,25,0.00,,---,0.00,VWS V14.00,2013-06-20 12:50:00,
2013-06-20 05:55:00,61.1,25.0,29.67,East,87,0.0,0.0,25,0.00,,---,0.00,VWS V14.00,2013-06-20 12:55:00,
2013-06-20 06:00:00,60.7,24.7,29.67,East,87,0.0,0.0,25,0.00,,---,0.00,VWS V14.00,2013-06-20 13:00:00,
2013-06-20 06:05:00,60.7,25.6,29.67,East,80,0.0,0.0,26,0.00,,---,0.00,VWS V14.00,2013-06-20 13:05:00,
2013-06-20 06:10:00,61.2,27.0,29.67,East,80,0.0,0.0,27,0.00,,---,0.00,VWS V14.00,2013-06-20 13:10:00,
2013-06-20 06:15:00,62.1,24.9,29.67,East,80,0.0,0.0,24,0.00,,---,0.00,VWS V14.00,2013-06-20 13:15:00,
2013-06-20 06:20:00,64.3,24.7,29.67,East,80,0.0,0.0,22,0.00,,---,0.00,VWS V14.00,2013-06-20 13:20:00,
2013-06-20 06:25:00,66.7,23.2,29.67,East,80,0.0,0.0,19,0.00,,---,0.00,VWS V14.00,2013-06-20 13:25:00,
2013-06-20 06:30:00,69.7,24.3,29.67,ESE,111,0.0,5.0,18,0.00,,---,0.00,VWS V14.00,2013-06-20 13:30:00,
2013-06-20 06:35:00,72.4,25.2,29.67,ESE,119,0.0,3.0,17,0.00,,---,0.00,VWS V14.00,2013-06-20 13:35:00,
2013-06-20 06:40:00,74.6,25.5,29.68,SE,137,0.0,4.0,16,0.00,,---,0.00,VWS V14.00,2013-06-20 13:40:00,
2013-06-20 06:45:00,76.1,25.1,29.67,SE,146,0.0,6.0,15,0.00,,---,0.00,VWS V14.00,2013-06-20 13:45:00,
2013-06-20 06:50:00,77.1,25.9,29.67,SE,137,0.0,6.0,15,0.00,,---,0.00,VWS V14.00,2013-06-20 13:50:00,
2013-06-20 06:55:00,77.7,24.8,29.68,SE,132,3.0,10.0,14,0.00,,---,0.00,VWS V14.00,2013-06-20 13:55:00,
2013-06-20 07:00:00,78.0,26.6,29.68,SE,144,0.0,10.0,15,0.00,,---,0.00,VWS V14.00,2013-06-20 14:00:00,
2013-06-20 07:05:00,78.2,25.1,29.68,SE,144,3.0,13.0,14,0.00,,---,0.00,VWS V14.00,2013-06-20 14:05:00,
2013-06-20 07:10:00,78.3,26.9,29.69,SSE,168,2.0,13.0,15,0.00,,---,0.00,VWS V14.00,2013-06-20 14:10:00,
2013-06-20 07:15:00,78.5,25.4,29.69,South,169,4.0,13.0,14,0.00,,---,0.00,VWS V14.00,2013-06-20 14:15:00,
2013-06-20 07:20:00,78.6,25.5,29.69,SSW,197,0.0,13.0,14,0.00,,---,0.00,VWS V14.00,2013-06-20 14:20:00,
2013-06-20 07:25:00,78.8,25.6,29.69,South,179,5.0,13.0,14,0.00,,---,0.00,VWS V14.00,2013-06-20 14:25:00,
2013-06-20 07:30:00,79.1,27.5,29.69,SE,145,1.0,13.0,15,0.00,,---,0.00,VWS V14.00,2013-06-20 14:30:00,
2013-06-20 07:35:00,79.5,27.9,29.69,SSE,148,0.0,6.0,15,0.00,,---,0.00,VWS V14.00,2013-06-20 14:35:00,
2013-06-20 07:40:00,80.1,28.3,29.70,SSE,158,0.0,6.0,15,0.00,,---,0.00,VWS V14.00,2013-06-20 14:40:00,
2013-06-20 07:45:00,80.6,28.7,29.70,SE,136,0.0,11.0,15,0.00,,---,0.00,VWS V14.00,2013-06-20 14:45:00,
2013-06-20 07:50:00,81.0,27.4,29.70,SE,142,1.0,11.0,14,0.00,,---,0.00,VWS V14.00,2013-06-20 14:50:00,
2013-06-20 07:55:00,81.2,27.5,29.70,SE,135,6.0,11.0,14,0.00,,---,0.00,VWS V14.00,2013-06-20 14:55:00,
2013-06-20 08:00:00,81.2,27.5,29.70,SSE,150,11.0,12.0,14,0.00,,---,0.00,VWS V14.00,2013-06-20 15:00:00,
2013-06-20 08:05:00,81.1,27.4,29.70,SE,135,3.0,11.0,14,0.00,,---,0.00,VWS V14.00,2013-06-20 15:05:00,
2013-06-20 08:10:00,81.3,27.6,29.70,South,175,2.0,15.0,14,0.00,,---,0.00,VWS V14.00,2013-06-20 15:10:00,
2013-06-20 08:15:00,81.4,27.7,29.70,SSE,155,4.0,15.0,14,0.00,,---,0.00,VWS V14.00,2013-06-20 15:15:00,
2013-06-20 08:20:00,81.9,26.3,29.70,SSE,153,0.0,15.0,13,0.00,,---,0.00,VWS V14.00,2013-06-20 15:20:00,
2013-06-20 08:25:00,82.2,24.6,29.70,South,175,6.0,15.0,12,0.00,,---,0.00,VWS V14.00,2013-06-20 15:25:00,
2013-06-20 08:30:00,82.5,24.8,29.70,SSE,153,0.0,15.0,12,0.00,,---,0.00,VWS V14.00,2013-06-20 15:30:00,
2013-06-20 08:35:00,82.6,24.9,29.71,SSE,150,0.0,15.0,12,0.00,,---,0.00,VWS V14.00,2013-06-20 15:35:00,
2013-06-20 08:40:00,83.0,23.1,29.70,SE,130,4.0,15.0,11,0.00,,---,0.00,VWS V14.00,2013-06-20 15:40:00,
2013-06-20 08:45:00,83.2,23.3,29.70,South,180,2.0,15.0,11,0.00,,---,0.00,VWS V14.00,2013-06-20 15:45:00,
2013-06-20 08:50:00,83.1,21.0,29.71,South,171,9.0,15.0,10,0.00,,---,0.00,VWS V14.00,2013-06-20 15:50:00,
2013-06-20 08:55:00,83.3,23.4,29.70,South,179,9.0,15.0,11,0.00,,---,0.00,VWS V14.00,2013-06-20 15:55:00,
2013-06-20 09:00:00,83.4,21.2,29.70,SSE,153,7.0,15.0,10,0.00,,---,0.00,VWS V14.00,2013-06-20 16:00:00,
2013-06-20 09:05:00,83.9,23.8,29.70,ESE,115,6.0,11.0,11,0.00,,---,0.00,VWS V14.00,2013-06-20 16:05:00,
2013-06-20 09:10:00,84.4,24.2,29.70,SSE,166,0.0,12.0,11,0.00,,---,0.00,VWS V14.00,2013-06-20 16:10:00,
2013-06-20 09:15:00,84.1,24.0,29.70,SSE,165,10.0,17.0,11,0.00,,---,0.00,VWS V14.00,2013-06-20 16:15:00,
2013-06-20 09:20:00,84.2,21.8,29.69,South,179,5.0,17.0,10,0.00,,---,0.00,VWS V14.00,2013-06-20 16:20:00,
2013-06-20 09:25:00,84.7,22.2,29.70,SE,144,7.0,17.0,10,0.00,,---,0.00,VWS V14.00,2013-06-20 16:25:00,
2013-06-20 09:30:00,85.1,22.5,29.70,ESE,123,2.0,17.0,10,0.00,,---,0.00,VWS V14.00,2013-06-20 16:30:00,
2013-06-20 09:35:00,85.4,20.2,29.70,SSE,156,3.0,12.0,9,0.00,,---,0.00,VWS V14.00,2013-06-20 16:35:00,
2013-06-20 09:40:00,85.5,22.8,29.70,SSW,207,0.0,12.0,10,0.00,,---,0.00,VWS V14.00,2013-06-20 16:40:00,
2013-06-20 09:45:00,85.3,22.6,29.69,SW,219,4.0,12.0,10,0.00,,---,0.00,VWS V14.00,2013-06-20 16:45:00,
2013-06-20 09:50:00,85.6,20.4,29.70,SSE,167,0.0,12.0,9,0.00,,---,0.00,VWS V14.00,2013-06-20 16:50:00,
2013-06-20 09:55:00,85.8,20.5,29.70,South,182,0.0,12.0,9,0.00,,---,0.00,VWS V14.00,2013-06-20 16:55:00,
2013-06-20 10:00:00,86.0,17.9,29.70,SSE,167,6.0,12.0,8,0.00,,---,0.00,VWS V14.00,2013-06-20 17:00:00,
2013-06-20 10:05:00,86.6,18.4,29.69,SE,145,0.0,4.0,8,0.00,,---,0.00,VWS V14.00,2013-06-20 17:05:00,
2013-06-20 10:10:00,87.1,15.6,29.70,SSE,167,4.0,5.0,7,0.00,,---,0.00,VWS V14.00,2013-06-20 17:10:00,
2013-06-20 10:15:00,87.7,16.1,29.70,SSE,155,6.0,16.0,7,0.00,,---,0.00,VWS V14.00,2013-06-20 17:15:00,
2013-06-20 10:20:00,87.8,12.6,29.70,SW,221,9.0,16.0,6,0.00,,---,0.00,VWS V14.00,2013-06-20 17:20:00,
2013-06-20 10:25:00,87.5,8.3,29.70,South,172,6.0,16.0,5,0.00,,---,0.00,VWS V14.00,2013-06-20 17:25:00,
2013-06-20 10:30:00,87.7,12.6,29.69,SSE,166,11.0,16.0,6,0.00,,---,0.00,VWS V14.00,2013-06-20 17:30:00,
2013-06-20 10:35:00,88.1,16.4,29.70,WSW,258,0.0,11.0,7,0.00,,---,0.00,VWS V14.00,2013-06-20 17:35:00,
2013-06-20 10:40:00,88.1,16.4,29.69,WSW,246,9.0,11.0,7,0.00,,---,0.00,VWS V14.00,2013-06-20 17:40:00,
2013-06-20 10:45:00,88.0,12.8,29.70,SSW,200,0.0,11.0,6,0.00,,---,0.00,VWS V14.00,2013-06-20 17:45:00,
2013-06-20 10:50:00,88.3,13.0,29.70,WSW,247,0.0,11.0,6,0.00,,---,0.00,VWS V14.00,2013-06-20 17:50:00,
2013-06-20 10:55:00,88.7,16.8,29.69,WSW,254,10.0,11.0,7,0.00,,---,0.00,VWS V14.00,2013-06-20 17:55:00,
2013-06-20 11:00:00,89.3,13.7,29.70,SW,215,5.0,14.0,6,0.00,,---,0.00,VWS V14.00,2013-06-20 18:00:00,
2013-06-20 11:05:00,89.8,14.1,29.70,SSW,208,10.0,11.0,6,0.00,,---,0.00,VWS V14.00,2013-06-20 18:05:00,
2013-06-20 11:10:00,89.8,10.0,29.70,SSW,211,14.0,16.0,5,0.00,,---,0.00,VWS V14.00,2013-06-20 18:10:00,
2013-06-20 11:15:00,89.2,9.5,29.70,SW,217,0.0,16.0,5,0.00,,---,0.00,VWS V14.00,2013-06-20 18:15:00,
2013-06-20 11:20:00,88.9,9.3,29.69,NNE,16,0.0,16.0,5,0.00,,---,0.00,VWS V14.00,2013-06-20 18:20:00,
2013-06-20 11:25:00,89.4,4.8,29.69,SSE,152,5.0,16.0,4,0.00,,---,0.00,VWS V14.00,2013-06-20 18:25:00,
2013-06-20 11:30:00,89.9,10.0,29.69,SSW,198,3.0,16.0,5,0.00,,---,0.00,VWS V14.00,2013-06-20 18:30:00,
2013-06-20 11:35:00,89.8,10.0,29.69,SSW,194,0.0,11.0,5,0.00,,---,0.00,VWS V14.00,2013-06-20 18:35:00,
2013-06-20 11:40:00,90.0,10.1,29.69,SSW,196,9.0,14.0,5,0.00,,---,0.00,VWS V14.00,2013-06-20 18:40:00,
2013-06-20 11:45:00,90.0,10.1,29.69,WSW,246,1.0,16.0,5,0.00,,---,0.00,VWS V14.00,2013-06-20 18:45:00,
2013-06-20 11:50:00,89.8,10.0,29.69,WSW,248,5.0,16.0,5,0.00,,---,0.00,VWS V14.00,2013-06-20 18:50:00,
2013-06-20 11:55:00,90.2,14.4,29.69,SSE,159,7.0,16.0,6,0.00,,---,0.00,VWS V14.00,2013-06-20 18:55:00,
2013-06-20 12:00:00,91.3,11.0,29.68,SW,228,0.0,16.0,5,0.00,,---,0.00,VWS V14.00,2013-06-20 19:00:00,
2013-06-20 12:05:00,91.6,6.3,29.69,South,181,6.0,15.0,4,0.00,,---,0.00,VWS V14.00,2013-06-20 19:05:00,
2013-06-20 12:10:00,92.5,6.9,29.68,SSE,155,13.0,20.0,4,0.00,,---,0.00,VWS V14.00,2013-06-20 19:10:00,
2013-06-20 12:15:00,92.2,6.7,29.67,SSE,157,4.0,20.0,4,0.00,,---,0.00,VWS V14.00,2013-06-20 19:15:00,
2013-06-20 12:20:00,92.1,6.6,29.68,SSE,153,3.0,20.0,4,0.00,,---,0.00,VWS V14.00,2013-06-20 19:20:00,
2013-06-20 12:25:00,92.5,6.9,29.67,SE,129,4.0,20.0,4,0.00,,---,0.00,VWS V14.00,2013-06-20 19:25:00,
2013-06-20 12:30:00,92.6,6.9,29.67,SSW,199,6.0,20.0,4,0.00,,---,0.00,VWS V14.00,2013-06-20 19:30:00,
2013-06-20 12:35:00,92.8,7.1,29.67,South,173,7.0,23.0,4,0.00,,---,0.00,VWS V14.00,2013-06-20 19:35:00,
2013-06-20 12:40:00,93.2,7.4,29.67,SSE,168,8.0,23.0,4,0.00,,---,0.00,VWS V14.00,2013-06-20 19:40:00,
2013-06-20 12:45:00,93.4,7.5,29.67,SE,146,0.0,23.0,4,0.00,,---,0.00,VWS V14.00,2013-06-20 19:45:00,
2013-06-20 12:50:00,93.2,7.4,29.67,SSW,212,1.0,23.0,4,0.00,,---,0.00,VWS V14.00,2013-06-20 19:50:00,
2013-06-20 12:55:00,93.4,12.5,29.66,SW,217,17.0,23.0,5,0.00,,---,0.00,VWS V14.00,2013-06-20 19:55:00,
2013-06-20 13:00:00,94.1,13.0,29.66,SW,221,6.0,23.0,5,0.00,,---,0.00,VWS V14.00,2013-06-20 20:00:00,
2013-06-20 13:05:00,93.8,12.8,29.66,WSW,240,14.0,19.0,5,0.00,,---,0.00,VWS V14.00,2013-06-20 20:05:00,
2013-06-20 13:10:00,93.7,12.7,29.66,SSW,205,20.0,30.0,5,0.00,,---,0.00,VWS V14.00,2013-06-20 20:10:00,
2013-06-20 13:15:00,93.0,12.2,29.66,WSW,238,15.0,30.0,5,0.00,,---,0.00,VWS V14.00,2013-06-20 20:15:00,
2013-06-20 13:20:00,93.7,12.7,29.66,WSW,249,6.0,30.0,5,0.00,,---,0.00,VWS V14.00,2013-06-20 20:20:00,
2013-06-20 13:25:00,93.6,12.6,29.66,SW,216,8.0,30.0,5,0.00,,---,0.00,VWS V14.00,2013-06-20 20:25:00,
2013-06-20 13:30:00,94.0,12.9,29.66,SW,219,10.0,30.0,5,0.00,,---,0.00,VWS V14.00,2013-06-20 20:30:00,
2013-06-20 13:35:00,93.9,17.0,29.65,SSW,211,14.0,23.0,6,0.00,,---,0.00,VWS V14.00,2013-06-20 20:35:00,
2013-06-20 13:40:00,94.0,12.9,29.66,SW,219,16.0,23.0,5,0.00,,---,0.00,VWS V14.00,2013-06-20 20:40:00,
2013-06-20 13:45:00,93.4,12.5,29.65,West,268,6.0,23.0,5,0.00,,---,0.00,VWS V14.00,2013-06-20 20:45:00,
2013-06-20 13:50:00,94.0,17.1,29.65,SSW,196,7.0,23.0,6,0.00,,---,0.00,VWS V14.00,2013-06-20 20:50:00,
2013-06-20 13:55:00,93.8,16.9,29.65,SW,228,10.0,24.0,6,0.00,,---,0.00,VWS V14.00,2013-06-20 20:55:00,
2013-06-20 14:00:00,93.9,17.0,29.66,SW,219,13.0,24.0,6,0.00,,---,0.00,VWS V14.00,2013-06-20 21:00:00,
2013-06-20 14:06:00,93.5,16.7,29.64,SW,221,0.0,18.0,6,0.00,,---,0.00,VWS V14.00,2013-06-20 21:06:00,
2013-06-20 14:11:00,94.3,17.3,29.64,WSW,244,9.0,24.0,6,0.00,,---,0.00,VWS V14.00,2013-06-20 21:11:00,
2013-06-20 14:16:00,94.4,17.4,29.64,SW,225,13.0,24.0,6,0.00,,---,0.00,VWS V14.00,2013-06-20 21:16:00,
2013-06-20 14:21:00,95.0,17.8,29.64,SSW,203,20.0,24.0,6,0.00,,---,0.00,VWS V14.00,2013-06-20 21:21:00,
2013-06-20 14:26:00,94.7,17.6,29.64,West,267,7.0,24.0,6,0.00,,---,0.00,VWS V14.00,2013-06-20 21:26:00,
2013-06-20 14:31:00,94.9,17.7,29.64,West,267,20.0,24.0,6,0.00,,---,0.00,VWS V14.00,2013-06-20 21:31:00,
2013-06-20 14:36:00,94.2,17.2,29.64,WSW,251,19.0,25.0,6,0.00,,---,0.00,VWS V14.00,2013-06-20 21:36:00,
2013-06-20 14:41:00,93.7,20.4,29.64,SW,220,10.0,25.0,7,0.00,,---,0.00,VWS V14.00,2013-06-20 21:41:00,
2013-06-20 14:46:00,94.0,17.1,29.64,WSW,251,8.0,25.0,6,0.00,,---,0.00,VWS V14.00,2013-06-20 21:46:00,
2013-06-20 14:51:00,94.0,17.1,29.64,SW,215,10.0,25.0,6,0.00,,---,0.00,VWS V14.00,2013-06-20 21:51:00,
2013-06-20 14:56:00,94.0,20.7,29.64,SSW,210,7.0,25.0,7,0.00,,---,0.00,VWS V14.00,2013-06-20 21:56:00,
2013-06-20 15:01:00,93.5,20.3,29.64,SSE,152,0.0,25.0,7,0.00,,---,0.00,VWS V14.00,2013-06-20 22:01:00,
2013-06-20 15:06:00,93.8,20.5,29.64,SSW,192,19.0,19.0,7,0.00,,---,0.00,VWS V14.00,2013-06-20 22:06:00,
2013-06-20 15:11:00,94.0,20.7,29.63,WSW,244,9.0,20.0,7,0.00,,---,0.00,VWS V14.00,2013-06-20 22:11:00,
2013-06-20 15:16:00,94.7,17.6,29.63,West,266,5.0,20.0,6,0.00,,---,0.00,VWS V14.00,2013-06-20 22:16:00,
2013-06-20 15:21:00,95.3,18.0,29.63,SW,236,16.0,21.0,6,0.00,,---,0.00,VWS V14.00,2013-06-20 22:21:00,
2013-06-20 15:26:00,94.9,21.3,29.63,WSW,248,16.0,23.0,7,0.00,,---,0.00,VWS V14.00,2013-06-20 22:26:00,
2013-06-20 15:31:00,95.0,17.8,29.63,WSW,258,5.0,23.0,6,0.00,,---,0.00,VWS V14.00,2013-06-20 22:31:00,
2013-06-20 15:36:00,94.9,17.7,29.63,SSW,196,0.0,13.0,6,0.00,,---,0.00,VWS V14.00,2013-06-20 22:36:00,
2013-06-20 15:41:00,95.0,17.8,29.62,WSW,238,13.0,14.0,6,0.00,,---,0.00,VWS V14.00,2013-06-20 22:41:00,
2013-06-20 15:46:00,95.4,18.1,29.63,WSW,248,6.0,17.0,6,0.00,,---,0.00,VWS V14.00,2013-06-20 22:46:00,
2013-06-20 15:51:00,95.0,17.8,29.63,West,277,4.0,17.0,6,0.00,,---,0.00,VWS V14.00,2013-06-20 22:51:00,
2013-06-20 15:56:00,95.0,17.8,29.62,SSW,213,12.0,17.0,6,0.00,,---,0.00,VWS V14.00,2013-06-20 22:56:00,
2013-06-20 16:01:00,94.7,17.6,29.63,WSW,246,2.0,21.0,6,0.00,,---,0.00,VWS V14.00,2013-06-20 23:01:00,
2013-06-20 16:06:00,94.7,17.6,29.62,SSW,207,10.0,16.0,6,0.00,,---,0.00,VWS V14.00,2013-06-20 23:06:00,
2013-06-20 16:11:00,94.6,17.5,29.62,West,271,12.0,20.0,6,0.00,,---,0.00,VWS V14.00,2013-06-20 23:11:00,
2013-06-20 16:16:00,94.4,17.4,29.63,SSW,211,3.0,20.0,6,0.00,,---,0.00,VWS V14.00,2013-06-20 23:16:00,
2013-06-20 16:21:00,93.8,20.5,29.62,West,278,15.0,20.0,7,0.00,,---,0.00,VWS V14.00,2013-06-20 23:21:00,
2013-06-20 16:26:00,94.0,17.1,29.62,WSW,248,11.0,20.0,6,0.00,,---,0.00,VWS V14.00,2013-06-20 23:26:00,
2013-06-20 16:31:00,94.0,20.7,29.62,SW,231,16.0,20.0,7,0.00,,---,0.00,VWS V14.00,2013-06-20 23:31:00,
2013-06-20 16:36:00,93.6,20.4,29.62,SW,227,5.0,16.0,7,0.00,,---,0.00,VWS V14.00,2013-06-20 23:36:00,
2013-06-20 16:41:00,93.8,20.5,29.62,WSW,254,7.0,16.0,7,0.00,,---,0.00,VWS V14.00,2013-06-20 23:41:00,
2013-06-20 16:46:00,93.8,20.5,29.62,WSW,248,16.0,17.0,7,0.00,,---,0.00,VWS V14.00,2013-06-20 23:46:00,
2013-06-20 16:51:00,93.6,20.4,29.62,SSW,207,13.0,17.0,7,0.00,,---,0.00,VWS V14.00,2013-06-20 23:51:00,
2013-06-20 16:57:00,93.1,20.0,29.62,SW,228,9.0,18.0,7,0.00,,---,0.00,VWS V14.00,2013-06-20 23:57:00,
2013-06-20 17:02:00,93.2,20.1,29.62,West,267,9.0,9.0,7,0.00,,---,0.00,VWS V14.00,2013-06-21 00:02:00,
2013-06-20 17:07:00,93.5,20.3,29.62,WSW,249,8.0,19.0,7,0.00,,---,0.00,VWS V14.00,2013-06-21 00:07:00,
2013-06-20 17:12:00,93.4,20.2,29.62,WSW,245,15.0,19.0,7,0.00,,---,0.00,VWS V14.00,2013-06-21 00:12:00,
2013-06-20 17:17:00,93.2,20.1,29.62,WSW,250,7.0,23.0,7,0.00,,---,0.00,VWS V14.00,2013-06-21 00:17:00,
2013-06-20 17:22:00,93.3,20.1,29.62,SSW,202,13.0,23.0,7,0.00,,---,0.00,VWS V14.00,2013-06-21 00:22:00,
2013-06-20 17:27:00,93.1,20.0,29.62,WSW,249,5.0,23.0,7,0.00,,---,0.00,VWS V14.00,2013-06-21 00:27:00,
2013-06-20 17:32:00,92.7,22.9,29.62,SW,220,6.0,12.0,8,0.00,,---,0.00,VWS V14.00,2013-06-21 00:32:00,
2013-06-20 17:37:00,92.4,22.6,29.62,WSW,253,15.0,17.0,8,0.00,,---,0.00,VWS V14.00,2013-06-21 00:37:00,
2013-06-20 17:42:00,92.3,22.6,29.63,SSW,213,12.0,18.0,8,0.00,,---,0.00,VWS V14.00,2013-06-21 00:42:00,
2013-06-20 17:47:00,92.2,22.5,29.63,West,259,6.0,18.0,8,0.00,,---,0.00,VWS V14.00,2013-06-21 00:47:00,
2013-06-20 17:52:00,92.2,22.5,29.63,SSW,208,12.0,18.0,8,0.00,,---,0.00,VWS V14.00,2013-06-21 00:52:00,
2013-06-20 17:57:00,91.9,22.3,29.63,SW,227,11.0,18.0,8,0.00,,---,0.00,VWS V14.00,2013-06-21 00:57:00,
2013-06-20 18:02:00,91.9,22.3,29.63,WSW,248,3.0,16.0,8,0.00,,---,0.00,VWS V14.00,2013-06-21 01:02:00,
2013-06-20 18:07:00,91.8,25.0,29.63,SW,225,5.0,19.0,9,0.00,,---,0.00,VWS V14.00,2013-06-21 01:07:00,
2013-06-20 18:12:00,91.7,24.9,29.63,SW,215,6.0,19.0,9,0.00,,---,0.00,VWS V14.00,2013-06-21 01:12:00,
2013-06-20 18:17:00,91.6,24.9,29.63,WSW,239,7.0,19.0,9,0.00,,---,0.00,VWS V14.00,2013-06-21 01:17:00,
2013-06-20 18:22:00,91.3,24.6,29.63,SW,232,13.0,23.0,9,0.00,,---,0.00,VWS V14.00,2013-06-21 01:22:00,
2013-06-20 18:27:00,90.9,24.3,29.63,SSW,204,11.0,23.0,9,0.00,,---,0.00,VWS V14.00,2013-06-21 01:27:00,
2013-06-20 18:32:00,90.8,24.3,29.63,WSW,244,14.0,14.0,9,0.00,,---,0.00,VWS V14.00,2013-06-21 01:32:00,
2013-06-20 18:37:00,90.5,24.0,29.63,SSW,208,17.0,17.0,9,0.00,,---,0.00,VWS V14.00,2013-06-21 01:37:00,
2013-06-20 18:42:00,90.3,23.9,29.63,SW,222,7.0,17.0,9,0.00,,---,0.00,VWS V14.00,2013-06-21 01:42:00,
2013-06-20 18:48:00,90.0,23.7,29.64,SSW,213,6.0,17.0,9,0.00,,---,0.00,VWS V14.00,2013-06-21 01:48:00,
2013-06-20 18:53:00,89.8,23.5,29.63,SW,217,4.0,17.0,9,0.00,,---,0.00,VWS V14.00,2013-06-21 01:53:00,
2013-06-20 18:58:00,89.7,23.4,29.63,SW,214,6.0,17.0,9,0.00,,---,0.00,VWS V14.00,2013-06-21 01:58:00,
2013-06-20 19:03:00,89.4,25.7,29.63,SW,225,3.0,10.0,10,0.00,,---,0.00,VWS V14.00,2013-06-21 02:03:00,
2013-06-20 19:08:00,89.0,25.4,29.63,SSW,207,4.0,13.0,10,0.00,,---,0.00,VWS V14.00,2013-06-21 02:08:00,
2013-06-20 19:13:00,88.7,25.2,29.63,SW,236,6.0,13.0,10,0.00,,---,0.00,VWS V14.00,2013-06-21 02:13:00,
2013-06-20 19:18:00,88.3,24.9,29.63,SSW,200,6.0,13.0,10,0.00,,---,0.00,VWS V14.00,2013-06-21 02:18:00,
2013-06-20 19:23:00,87.9,24.6,29.64,SW,232,4.0,13.0,10,0.00,,---,0.00,VWS V14.00,2013-06-21 02:23:00,
2013-06-20 19:28:00,87.5,24.3,29.64,WSW,242,5.0,13.0,10,0.00,,---,0.00,VWS V14.00,2013-06-21 02:28:00,
2013-06-20 19:33:00,86.9,23.8,29.64,SW,227,1.0,5.0,10,0.00,,---,0.00,VWS V14.00,2013-06-21 02:33:00,
2013-06-20 19:38:00,86.5,25.8,29.64,WSW,241,2.0,10.0,11,0.00,,---,0.00,VWS V14.00,2013-06-21 02:38:00,
2013-06-20 19:43:00,86.3,25.7,29.64,South,177,9.0,14.0,11,0.00,,---,0.00,VWS V14.00,2013-06-21 02:43:00,
2013-06-20 19:48:00,86.1,25.5,29.64,West,273,7.0,18.0,11,0.00,,---,0.00,VWS V14.00,2013-06-21 02:48:00,
2013-06-20 19:53:00,85.9,27.5,29.64,ENE,63,3.0,18.0,12,0.00,,---,0.00,VWS V14.00,2013-06-21 02:53:00,
2013-06-20 19:58:00,85.6,27.2,29.64,West,270,0.0,18.0,12,0.00,,---,0.00,VWS V14.00,2013-06-21 02:58:00,
2013-06-20 20:03:00,85.5,27.1,29.64,SW,222,0.0,4.0,12,0.00,,---,0.00,VWS V14.00,2013-06-21 03:03:00,
2013-06-20 20:08:00,85.4,27.1,29.64,East,96,0.0,12.0,12,0.00,,---,0.00,VWS V14.00,2013-06-21 03:08:00,
2013-06-20 20:13:00,85.1,26.8,29.64,NE,40,0.0,12.0,12,0.00,,---,0.00,VWS V14.00,2013-06-21 03:13:00,
2013-06-20 20:18:00,84.8,26.6,29.65,NE,56,0.0,12.0,12,0.00,,---,0.00,VWS V14.00,2013-06-21 03:18:00,
2013-06-20 20:23:00,84.1,26.1,29.65,ENE,57,0.0,12.0,12,0.00,,---,0.00,VWS V14.00,2013-06-21 03:23:00,
2013-06-20 20:28:00,83.7,27.7,29.64,ESE,123,0.0,12.0,13,0.00,,---,0.00,VWS V14.00,2013-06-21 03:28:00,
2013-06-20 20:33:00,83.0,27.1,29.65,SE,137,0.0,0.0,13,0.00,,---,0.00,VWS V14.00,2013-06-21 03:33:00,
2013-06-20 20:38:00,82.1,26.4,29.66,ESE,118,0.0,2.0,13,0.00,,---,0.00,VWS V14.00,2013-06-21 03:38:00,
2013-06-20 20:43:00,81.5,26.0,29.66,ESE,118,0.0,2.0,13,0.00,,---,0.00,VWS V14.00,2013-06-21 03:43:00,
2013-06-20 20:48:00,80.7,27.1,29.66,ESE,118,0.0,2.0,14,0.00,,---,0.00,VWS V14.00,2013-06-21 03:48:00,
2013-06-20 20:53:00,80.2,26.7,29.66,ESE,118,0.0,2.0,14,0.00,,---,0.00,VWS V14.00,2013-06-21 03:53:00,
2013-06-20 20:59:00,79.5,26.2,29.67,ESE,118,0.0,2.0,14,0.00,,---,0.00,VWS V14.00,2013-06-21 03:59:00,
2013-06-20 21:01:00,79.2,25.9,29.67,ESE,118,0.0,2.0,14,0.00,,---,0.00,VWS V14.00,2013-06-21 04:01:00,
2013-06-20 21:06:00,78.3,26.9,29.67,ESE,118,0.0,0.0,15,0.00,,---,0.00,VWS V14.00,2013-06-21 04:06:00,
2013-06-20 21:11:00,77.8,26.5,29.67,ESE,118,0.0,0.0,15,0.00,,---,0.00,VWS V14.00,2013-06-21 04:11:00,
2013-06-20 21:16:00,76.4,25.4,29.67,ESE,118,0.0,0.0,15,0.00,,---,0.00,VWS V14.00,2013-06-21 04:16:00,
2013-06-20 21:21:00,74.5,25.4,29.67,ESE,118,0.0,0.0,16,0.00,,---,0.00,VWS V14.00,2013-06-21 04:21:00,
2013-06-20 21:26:00,72.9,24.1,29.67,ESE,118,0.0,0.0,16,0.00,,---,0.00,VWS V14.00,2013-06-21 04:26:00,
2013-06-20 21:31:00,71.8,24.7,29.68,ESE,118,0.0,0.0,17,0.00,,---,0.00,VWS V14.00,2013-06-21 04:31:00,
2013-06-20 21:36:00,71.0,25.4,29.68,ESE,118,0.0,0.0,18,0.00,,---,0.00,VWS V14.00,2013-06-21 04:36:00,
2013-06-20 21:41:00,70.1,24.7,29.68,ESE,118,0.0,0.0,18,0.00,,---,0.00,VWS V14.00,2013-06-21 04:41:00,
2013-06-20 21:46:00,69.8,24.4,29.68,ESE,118,0.0,0.0,18,0.00,,---,0.00,VWS V14.00,2013-06-21 04:46:00,
2013-06-20 21:51:00,69.5,24.2,29.68,ESE,118,0.0,0.0,18,0.00,,---,0.00,VWS V14.00,2013-06-21 04:51:00,
2013-06-20 21:56:00,70.2,24.7,29.68,ESE,118,0.0,0.0,18,0.00,,---,0.00,VWS V14.00,2013-06-21 04:56:00,
2013-06-20 22:01:00,70.8,25.2,29.68,ESE,118,0.0,0.0,18,0.00,,---,0.00,VWS V14.00,2013-06-21 05:01:00,
2013-06-20 22:06:00,71.0,25.4,29.68,ESE,118,0.0,0.0,18,0.00,,---,0.00,VWS V14.00,2013-06-21 05:06:00,
2013-06-20 22:11:00,71.3,24.3,29.69,ESE,118,0.0,0.0,17,0.00,,---,0.00,VWS V14.00,2013-06-21 05:11:00,
2013-06-20 22:16:00,70.8,23.9,29.68,ESE,118,0.0,1.0,17,0.00,,---,0.00,VWS V14.00,2013-06-21 05:16:00,
2013-06-20 22:22:00,69.9,24.5,29.69,ESE,118,0.0,1.0,18,0.00,,---,0.00,VWS V14.00,2013-06-21 05:22:00,
2013-06-20 22:27:00,69.3,24.0,29.69,ESE,118,0.0,1.0,18,0.00,,---,0.00,VWS V14.00,2013-06-21 05:27:00,
2013-06-20 22:32:00,69.2,23.9,29.69,ESE,118,0.0,0.0,18,0.00,,---,0.00,VWS V14.00,2013-06-21 05:32:00,
2013-06-20 22:37:00,69.9,23.1,29.69,ESE,118,0.0,0.0,17,0.00,,---,0.00,VWS V14.00,2013-06-21 05:37:00,
2013-06-20 22:42:00,69.4,24.1,29.69,ESE,118,0.0,0.0,18,0.00,,---,0.00,VWS V14.00,2013-06-21 05:42:00,
2013-06-20 22:47:00,68.8,23.6,29.69,ESE,118,0.0,0.0,18,0.00,,---,0.00,VWS V14.00,2013-06-21 05:47:00,
2013-06-20 22:52:00,68.3,23.2,29.70,ESE,118,0.0,0.0,18,0.00,,---,0.00,VWS V14.00,2013-06-21 05:52:00,
2013-06-20 22:57:00,67.8,22.8,29.70,ESE,118,0.0,0.0,18,0.00,,---,0.00,VWS V14.00,2013-06-21 05:57:00,
2013-06-20 23:02:00,67.3,23.7,29.70,ESE,118,0.0,0.0,19,0.00,,---,0.00,VWS V14.00,2013-06-21 06:02:00,
2013-06-20 23:07:00,66.8,23.2,29.70,ESE,118,0.0,0.0,19,0.00,,---,0.00,VWS V14.00,2013-06-21 06:07:00,
2013-06-20 23:12:00,66.1,22.7,29.70,ESE,118,0.0,0.0,19,0.00,,---,0.00,VWS V14.00,2013-06-21 06:12:00,
2013-06-20 23:17:00,65.0,23.0,29.70,ESE,118,0.0,0.0,20,0.00,,---,0.00,VWS V14.00,2013-06-21 06:17:00,
2013-06-20 23:22:00,64.5,23.7,29.70,ESE,118,0.0,0.0,21,0.00,,---,0.00,VWS V14.00,2013-06-21 06:22:00,
2013-06-20 23:27:00,64.5,22.6,29.70,ESE,118,0.0,0.0,20,0.00,,---,0.00,VWS V14.00,2013-06-21 06:27:00,
2013-06-20 23:32:00,64.1,23.4,29.70,ESE,118,0.0,0.0,21,0.00,,---,0.00,VWS V14.00,2013-06-21 06:32:00,
2013-06-20 23:37:00,64.5,24.8,29.70,ESE,118,0.0,0.0,22,0.00,,---,0.00,VWS V14.00,2013-06-21 06:37:00,
2013-06-20 23:42:00,64.8,24.0,29.70,ESE,118,0.0,0.0,21,0.00,,---,0.00,VWS V14.00,2013-06-21 06:42:00,
2013-06-20 23:47:00,64.6,23.8,29.70,ESE,118,0.0,0.0,21,0.00,,---,0.00,VWS V14.00,2013-06-21 06:47:00,
2013-06-20 23:52:00,64.0,23.3,29.70,ESE,118,0.0,0.0,21,0.00,,---,0.00,VWS V14.00,2013-06-21 06:52:00,
2013-06-20 23:57:00,63.6,24.1,29.70,ESE,118,0.0,0.0,22,0.00,,---,0.00,VWS V14.00,2013-06-21 06:57:00,